sensor_id;sensor_type;location;lat;lon;timestamp;P1;durP1;ratioP1;P2;durP2;ratioP2
12660;SDS011;39039;51.802;5.710;2023-03-01T00:01:00;21.60;;;19.67;;
12660;SDS011;39039;51.802;5.710;2023-03-01T00:03:27;21.73;;;19.83;;
12660;SDS011;39039;51.802;5.710;2023-03-01T00:05:54;24.00;;;22.00;;
12660;SDS011;39039;51.802;5.710;2023-03-01T00:08:22;25.53;;;23.50;;
12660;SDS011;39039;51.802;5.710;2023-03-01T00:10:49;29.57;;;27.33;;
12660;SDS011;39039;51.802;5.710;2023-03-01T00:13:16;36.03;;;33.63;;
12660;SDS011;39039;51.802;5.710;2023-03-01T00:15:43;33.10;;;30.53;;
12660;SDS011;39039;51.802;5.710;2023-03-01T00:18:10;40.17;;;37.57;;
12660;SDS011;39039;51.802;5.710;2023-03-01T00:20:37;36.13;;;33.63;;
12660;SDS011;39039;51.802;5.710;2023-03-01T00:23:04;38.60;;;35.90;;
12660;SDS011;39039;51.802;5.710;2023-03-01T00:25:32;33.40;;;31.20;;
12660;SDS011;39039;51.802;5.710;2023-03-01T00:28:00;35.60;;;33.07;;
12660;SDS011;39039;51.802;5.710;2023-03-01T00:30:27;31.37;;;29.03;;
12660;SDS011;39039;51.802;5.710;2023-03-01T00:32:54;35.03;;;32.37;;
12660;SDS011;39039;51.802;5.710;2023-03-01T00:35:21;26.53;;;24.50;;
12660;SDS011;39039;51.802;5.710;2023-03-01T00:37:48;23.73;;;21.80;;
12660;SDS011;39039;51.802;5.710;2023-03-01T00:40:22;20.33;;;18.33;;
12660;SDS011;39039;51.802;5.710;2023-03-01T00:42:51;22.27;;;20.37;;
12660;SDS011;39039;51.802;5.710;2023-03-01T00:45:17;24.97;;;22.77;;
12660;SDS011;39039;51.802;5.710;2023-03-01T00:47:44;21.27;;;19.47;;
12660;SDS011;39039;51.802;5.710;2023-03-01T00:50:12;21.60;;;19.73;;
12660;SDS011;39039;51.802;5.710;2023-03-01T00:52:39;20.37;;;18.57;;
12660;SDS011;39039;51.802;5.710;2023-03-01T00:55:06;27.43;;;24.87;;
12660;SDS011;39039;51.802;5.710;2023-03-01T00:57:33;26.73;;;24.57;;
12660;SDS011;39039;51.802;5.710;2023-03-01T01:00:02;28.90;;;26.60;;
12660;SDS011;39039;51.802;5.710;2023-03-01T01:02:31;31.90;;;29.60;;
12660;SDS011;39039;51.802;5.710;2023-03-01T01:04:58;28.23;;;26.03;;
12660;SDS011;39039;51.802;5.710;2023-03-01T01:07:26;25.53;;;23.23;;
12660;SDS011;39039;51.802;5.710;2023-03-01T01:09:53;26.67;;;24.57;;
12660;SDS011;39039;51.802;5.710;2023-03-01T01:12:20;27.00;;;24.63;;
12660;SDS011;39039;51.802;5.710;2023-03-01T01:14:47;21.50;;;19.60;;
12660;SDS011;39039;51.802;5.710;2023-03-01T01:17:15;21.73;;;19.90;;
12660;SDS011;39039;51.802;5.710;2023-03-01T01:19:42;21.47;;;19.50;;
12660;SDS011;39039;51.802;5.710;2023-03-01T01:22:09;19.07;;;17.33;;
12660;SDS011;39039;51.802;5.710;2023-03-01T01:24:37;20.17;;;18.40;;
12660;SDS011;39039;51.802;5.710;2023-03-01T01:27:04;19.37;;;17.47;;
12660;SDS011;39039;51.802;5.710;2023-03-01T01:29:32;20.03;;;18.13;;
12660;SDS011;39039;51.802;5.710;2023-03-01T01:31:59;18.77;;;17.17;;
12660;SDS011;39039;51.802;5.710;2023-03-01T01:34:27;19.87;;;17.93;;
12660;SDS011;39039;51.802;5.710;2023-03-01T01:36:54;19.60;;;17.90;;
12660;SDS011;39039;51.802;5.710;2023-03-01T01:39:21;20.50;;;18.70;;
12660;SDS011;39039;51.802;5.710;2023-03-01T01:41:48;19.70;;;17.97;;
12660;SDS011;39039;51.802;5.710;2023-03-01T01:44:17;20.50;;;18.90;;
12660;SDS011;39039;51.802;5.710;2023-03-01T01:46:45;19.50;;;17.60;;
12660;SDS011;39039;51.802;5.710;2023-03-01T01:49:17;19.97;;;18.27;;
12660;SDS011;39039;51.802;5.710;2023-03-01T01:51:47;19.27;;;17.47;;
12660;SDS011;39039;51.802;5.710;2023-03-01T01:54:16;19.63;;;17.93;;
12660;SDS011;39039;51.802;5.710;2023-03-01T01:56:46;19.50;;;17.63;;
12660;SDS011;39039;51.802;5.710;2023-03-01T01:59:15;20.07;;;18.33;;
12660;SDS011;39039;51.802;5.710;2023-03-01T02:01:42;17.23;;;15.63;;
12660;SDS011;39039;51.802;5.710;2023-03-01T02:04:10;18.93;;;17.23;;
12660;SDS011;39039;51.802;5.710;2023-03-01T02:06:39;19.40;;;17.70;;
12660;SDS011;39039;51.802;5.710;2023-03-01T02:09:10;19.30;;;17.57;;
12660;SDS011;39039;51.802;5.710;2023-03-01T02:11:38;18.47;;;16.80;;
12660;SDS011;39039;51.802;5.710;2023-03-01T02:14:05;21.93;;;18.53;;
12660;SDS011;39039;51.802;5.710;2023-03-01T02:16:32;20.30;;;18.30;;
12660;SDS011;39039;51.802;5.710;2023-03-01T02:18:59;16.83;;;15.33;;
12660;SDS011;39039;51.802;5.710;2023-03-01T02:21:30;20.17;;;18.27;;
12660;SDS011;39039;51.802;5.710;2023-03-01T02:23:59;19.37;;;17.63;;
12660;SDS011;39039;51.802;5.710;2023-03-01T02:26:31;18.60;;;16.83;;
12660;SDS011;39039;51.802;5.710;2023-03-01T02:29:03;18.93;;;17.23;;
12660;SDS011;39039;51.802;5.710;2023-03-01T02:31:31;17.80;;;16.33;;
12660;SDS011;39039;51.802;5.710;2023-03-01T02:34:07;19.63;;;17.73;;
12660;SDS011;39039;51.802;5.710;2023-03-01T02:36:36;18.70;;;17.10;;
12660;SDS011;39039;51.802;5.710;2023-03-01T02:39:04;18.83;;;17.13;;
12660;SDS011;39039;51.802;5.710;2023-03-01T02:41:32;19.17;;;17.43;;
12660;SDS011;39039;51.802;5.710;2023-03-01T02:44:03;20.10;;;18.40;;
12660;SDS011;39039;51.802;5.710;2023-03-01T02:46:30;19.80;;;18.13;;
12660;SDS011;39039;51.802;5.710;2023-03-01T02:48:58;21.97;;;19.93;;
12660;SDS011;39039;51.802;5.710;2023-03-01T02:51:39;20.30;;;18.60;;
12660;SDS011;39039;51.802;5.710;2023-03-01T02:54:10;20.93;;;18.97;;
12660;SDS011;39039;51.802;5.710;2023-03-01T02:56:38;21.57;;;19.43;;
12660;SDS011;39039;51.802;5.710;2023-03-01T02:59:07;20.03;;;18.43;;
12660;SDS011;39039;51.802;5.710;2023-03-01T03:01:35;18.87;;;17.07;;
12660;SDS011;39039;51.802;5.710;2023-03-01T03:04:03;18.17;;;16.50;;
12660;SDS011;39039;51.802;5.710;2023-03-01T03:06:30;20.43;;;18.53;;
12660;SDS011;39039;51.802;5.710;2023-03-01T03:08:57;20.30;;;18.60;;
12660;SDS011;39039;51.802;5.710;2023-03-01T03:11:25;21.27;;;19.47;;
12660;SDS011;39039;51.802;5.710;2023-03-01T03:13:52;19.40;;;17.77;;
12660;SDS011;39039;51.802;5.710;2023-03-01T03:16:20;19.80;;;17.97;;
12660;SDS011;39039;51.802;5.710;2023-03-01T03:18:47;20.53;;;18.53;;
12660;SDS011;39039;51.802;5.710;2023-03-01T03:21:15;21.33;;;19.53;;
12660;SDS011;39039;51.802;5.710;2023-03-01T03:23:42;20.57;;;18.73;;
12660;SDS011;39039;51.802;5.710;2023-03-01T03:26:09;21.70;;;19.90;;
12660;SDS011;39039;51.802;5.710;2023-03-01T03:28:38;18.30;;;16.50;;
12660;SDS011;39039;51.802;5.710;2023-03-01T03:31:06;20.63;;;18.83;;
12660;SDS011;39039;51.802;5.710;2023-03-01T03:33:35;19.67;;;17.73;;
12660;SDS011;39039;51.802;5.710;2023-03-01T03:36:02;18.80;;;17.00;;
12660;SDS011;39039;51.802;5.710;2023-03-01T03:38:29;20.43;;;18.57;;
12660;SDS011;39039;51.802;5.710;2023-03-01T03:41:00;19.40;;;17.40;;
12660;SDS011;39039;51.802;5.710;2023-03-01T03:43:28;18.47;;;16.77;;
12660;SDS011;39039;51.802;5.710;2023-03-01T03:45:55;20.77;;;18.87;;
12660;SDS011;39039;51.802;5.710;2023-03-01T03:48:23;19.40;;;17.70;;
12660;SDS011;39039;51.802;5.710;2023-03-01T03:50:52;19.63;;;17.90;;
12660;SDS011;39039;51.802;5.710;2023-03-01T03:53:20;17.77;;;15.90;;
12660;SDS011;39039;51.802;5.710;2023-03-01T03:55:47;18.93;;;17.33;;
12660;SDS011;39039;51.802;5.710;2023-03-01T03:58:16;18.93;;;17.17;;
12660;SDS011;39039;51.802;5.710;2023-03-01T04:00:44;20.50;;;18.70;;
12660;SDS011;39039;51.802;5.710;2023-03-01T04:03:13;19.60;;;17.80;;
12660;SDS011;39039;51.802;5.710;2023-03-01T04:05:40;19.27;;;17.50;;
12660;SDS011;39039;51.802;5.710;2023-03-01T04:08:09;20.90;;;18.90;;
12660;SDS011;39039;51.802;5.710;2023-03-01T04:10:37;20.00;;;18.13;;
12660;SDS011;39039;51.802;5.710;2023-03-01T04:13:04;20.50;;;18.60;;
12660;SDS011;39039;51.802;5.710;2023-03-01T04:15:31;19.43;;;16.73;;
12660;SDS011;39039;51.802;5.710;2023-03-01T04:17:59;21.27;;;19.27;;
12660;SDS011;39039;51.802;5.710;2023-03-01T04:20:28;19.63;;;17.93;;
12660;SDS011;39039;51.802;5.710;2023-03-01T04:22:56;22.63;;;20.43;;
12660;SDS011;39039;51.802;5.710;2023-03-01T04:25:25;21.17;;;19.00;;
12660;SDS011;39039;51.802;5.710;2023-03-01T04:27:52;21.87;;;19.93;;
12660;SDS011;39039;51.802;5.710;2023-03-01T04:30:19;19.63;;;17.63;;
12660;SDS011;39039;51.802;5.710;2023-03-01T04:32:50;21.73;;;19.73;;
12660;SDS011;39039;51.802;5.710;2023-03-01T04:35:17;19.77;;;17.97;;
12660;SDS011;39039;51.802;5.710;2023-03-01T04:37:44;20.10;;;18.30;;
12660;SDS011;39039;51.802;5.710;2023-03-01T04:40:11;20.43;;;18.63;;
12660;SDS011;39039;51.802;5.710;2023-03-01T04:42:43;21.23;;;19.27;;
12660;SDS011;39039;51.802;5.710;2023-03-01T04:45:10;20.10;;;18.20;;
12660;SDS011;39039;51.802;5.710;2023-03-01T04:47:39;21.20;;;19.30;;
12660;SDS011;39039;51.802;5.710;2023-03-01T04:50:06;23.00;;;20.90;;
12660;SDS011;39039;51.802;5.710;2023-03-01T04:52:34;20.93;;;19.00;;
12660;SDS011;39039;51.802;5.710;2023-03-01T04:55:01;19.57;;;17.87;;
12660;SDS011;39039;51.802;5.710;2023-03-01T04:57:28;21.70;;;19.60;;
12660;SDS011;39039;51.802;5.710;2023-03-01T04:59:56;20.77;;;18.97;;
12660;SDS011;39039;51.802;5.710;2023-03-01T05:02:23;22.13;;;20.13;;
12660;SDS011;39039;51.802;5.710;2023-03-01T05:04:50;26.80;;;24.20;;
12660;SDS011;39039;51.802;5.710;2023-03-01T05:07:22;32.30;;;29.80;;
12660;SDS011;39039;51.802;5.710;2023-03-01T05:09:51;31.40;;;28.90;;
12660;SDS011;39039;51.802;5.710;2023-03-01T05:12:19;31.00;;;28.33;;
12660;SDS011;39039;51.802;5.710;2023-03-01T05:14:46;25.50;;;23.30;;
12660;SDS011;39039;51.802;5.710;2023-03-01T05:17:14;29.07;;;26.77;;
12660;SDS011;39039;51.802;5.710;2023-03-01T05:19:41;29.23;;;26.80;;
12660;SDS011;39039;51.802;5.710;2023-03-01T05:22:08;29.10;;;26.80;;
12660;SDS011;39039;51.802;5.710;2023-03-01T05:24:36;34.87;;;32.20;;
12660;SDS011;39039;51.802;5.710;2023-03-01T05:27:03;33.53;;;30.83;;
12660;SDS011;39039;51.802;5.710;2023-03-01T05:29:31;31.77;;;29.30;;
12660;SDS011;39039;51.802;5.710;2023-03-01T05:32:00;38.00;;;35.07;;
12660;SDS011;39039;51.802;5.710;2023-03-01T05:34:30;37.37;;;34.57;;
12660;SDS011;39039;51.802;5.710;2023-03-01T05:36:57;26.20;;;24.00;;
12660;SDS011;39039;51.802;5.710;2023-03-01T05:39:24;23.70;;;21.77;;
12660;SDS011;39039;51.802;5.710;2023-03-01T05:41:52;22.73;;;20.67;;
12660;SDS011;39039;51.802;5.710;2023-03-01T05:44:20;20.40;;;18.40;;
12660;SDS011;39039;51.802;5.710;2023-03-01T05:46:47;22.97;;;20.70;;
12660;SDS011;39039;51.802;5.710;2023-03-01T05:49:14;22.67;;;20.27;;
12660;SDS011;39039;51.802;5.710;2023-03-01T05:51:43;22.30;;;20.23;;
12660;SDS011;39039;51.802;5.710;2023-03-01T05:54:13;21.00;;;18.80;;
12660;SDS011;39039;51.802;5.710;2023-03-01T05:56:41;21.53;;;19.67;;
12660;SDS011;39039;51.802;5.710;2023-03-01T05:59:08;21.87;;;19.73;;
12660;SDS011;39039;51.802;5.710;2023-03-01T06:01:35;23.20;;;21.00;;
12660;SDS011;39039;51.802;5.710;2023-03-01T06:04:02;24.30;;;21.90;;
12660;SDS011;39039;51.802;5.710;2023-03-01T06:06:32;21.93;;;19.87;;
12660;SDS011;39039;51.802;5.710;2023-03-01T06:09:01;22.53;;;20.40;;
12660;SDS011;39039;51.802;5.710;2023-03-01T06:11:28;22.50;;;20.40;;
12660;SDS011;39039;51.802;5.710;2023-03-01T06:13:55;22.43;;;20.23;;
12660;SDS011;39039;51.802;5.710;2023-03-01T06:16:22;23.07;;;20.87;;
12660;SDS011;39039;51.802;5.710;2023-03-01T06:18:49;23.83;;;21.43;;
12660;SDS011;39039;51.802;5.710;2023-03-01T06:21:16;23.73;;;21.43;;
12660;SDS011;39039;51.802;5.710;2023-03-01T06:23:43;21.43;;;19.40;;
12660;SDS011;39039;51.802;5.710;2023-03-01T06:26:12;24.40;;;20.83;;
12660;SDS011;39039;51.802;5.710;2023-03-01T06:28:39;23.13;;;21.00;;
12660;SDS011;39039;51.802;5.710;2023-03-01T06:31:06;27.53;;;21.30;;
12660;SDS011;39039;51.802;5.710;2023-03-01T06:33:33;21.57;;;19.37;;
12660;SDS011;39039;51.802;5.710;2023-03-01T06:36:01;21.73;;;19.63;;
12660;SDS011;39039;51.802;5.710;2023-03-01T06:38:28;20.47;;;18.57;;
12660;SDS011;39039;51.802;5.710;2023-03-01T06:40:55;21.70;;;19.50;;
12660;SDS011;39039;51.802;5.710;2023-03-01T06:43:23;20.07;;;18.17;;
12660;SDS011;39039;51.802;5.710;2023-03-01T06:45:50;20.40;;;18.03;;
12660;SDS011;39039;51.802;5.710;2023-03-01T06:48:17;22.63;;;20.37;;
12660;SDS011;39039;51.802;5.710;2023-03-01T06:50:45;19.37;;;17.57;;
12660;SDS011;39039;51.802;5.710;2023-03-01T06:53:12;21.33;;;19.00;;
12660;SDS011;39039;51.802;5.710;2023-03-01T06:55:39;22.10;;;19.97;;
12660;SDS011;39039;51.802;5.710;2023-03-01T06:58:05;22.20;;;18.97;;
12660;SDS011;39039;51.802;5.710;2023-03-01T07:00:34;19.60;;;17.70;;
12660;SDS011;39039;51.802;5.710;2023-03-01T07:03:01;21.37;;;19.33;;
12660;SDS011;39039;51.802;5.710;2023-03-01T07:05:28;20.60;;;18.60;;
12660;SDS011;39039;51.802;5.710;2023-03-01T07:07:55;19.63;;;17.60;;
12660;SDS011;39039;51.802;5.710;2023-03-01T07:10:22;20.17;;;18.23;;
12660;SDS011;39039;51.802;5.710;2023-03-01T07:12:49;21.03;;;18.80;;
12660;SDS011;39039;51.802;5.710;2023-03-01T07:15:16;21.07;;;19.00;;
12660;SDS011;39039;51.802;5.710;2023-03-01T07:17:45;22.23;;;20.13;;
12660;SDS011;39039;51.802;5.710;2023-03-01T07:20:13;22.87;;;20.37;;
12660;SDS011;39039;51.802;5.710;2023-03-01T07:22:41;23.83;;;21.83;;
12660;SDS011;39039;51.802;5.710;2023-03-01T07:25:08;28.77;;;26.37;;
12660;SDS011;39039;51.802;5.710;2023-03-01T07:27:35;26.27;;;24.27;;
12660;SDS011;39039;51.802;5.710;2023-03-01T07:30:03;23.27;;;21.27;;
12660;SDS011;39039;51.802;5.710;2023-03-01T07:32:30;23.53;;;20.90;;
12660;SDS011;39039;51.802;5.710;2023-03-01T07:34:58;22.10;;;20.07;;
12660;SDS011;39039;51.802;5.710;2023-03-01T07:37:25;21.50;;;18.30;;
12660;SDS011;39039;51.802;5.710;2023-03-01T07:39:53;20.83;;;18.93;;
12660;SDS011;39039;51.802;5.710;2023-03-01T07:42:20;20.10;;;18.13;;
12660;SDS011;39039;51.802;5.710;2023-03-01T07:44:47;19.87;;;17.93;;
12660;SDS011;39039;51.802;5.710;2023-03-01T07:47:14;22.20;;;18.40;;
12660;SDS011;39039;51.802;5.710;2023-03-01T07:49:41;19.90;;;17.97;;
12660;SDS011;39039;51.802;5.710;2023-03-01T07:52:10;23.60;;;21.23;;
12660;SDS011;39039;51.802;5.710;2023-03-01T07:54:37;27.87;;;21.30;;
12660;SDS011;39039;51.802;5.710;2023-03-01T07:57:04;21.13;;;19.03;;
12660;SDS011;39039;51.802;5.710;2023-03-01T07:59:31;19.13;;;17.33;;
12660;SDS011;39039;51.802;5.710;2023-03-01T08:01:58;19.83;;;18.03;;
12660;SDS011;39039;51.802;5.710;2023-03-01T08:04:25;19.13;;;17.47;;
12660;SDS011;39039;51.802;5.710;2023-03-01T08:06:53;20.33;;;18.43;;
12660;SDS011;39039;51.802;5.710;2023-03-01T08:09:21;22.10;;;20.07;;
12660;SDS011;39039;51.802;5.710;2023-03-01T08:11:48;23.67;;;21.67;;
12660;SDS011;39039;51.802;5.710;2023-03-01T08:14:16;23.80;;;21.70;;
12660;SDS011;39039;51.802;5.710;2023-03-01T08:16:43;20.93;;;18.97;;
12660;SDS011;39039;51.802;5.710;2023-03-01T08:19:11;22.37;;;20.43;;
12660;SDS011;39039;51.802;5.710;2023-03-01T08:21:38;21.53;;;19.53;;
12660;SDS011;39039;51.802;5.710;2023-03-01T08:24:06;21.47;;;19.53;;
12660;SDS011;39039;51.802;5.710;2023-03-01T08:26:36;20.47;;;18.53;;
12660;SDS011;39039;51.802;5.710;2023-03-01T08:29:03;22.00;;;19.80;;
12660;SDS011;39039;51.802;5.710;2023-03-01T08:31:31;35.10;;;32.53;;
12660;SDS011;39039;51.802;5.710;2023-03-01T08:34:00;29.50;;;26.90;;
12660;SDS011;39039;51.802;5.710;2023-03-01T08:36:28;34.70;;;32.33;;
12660;SDS011;39039;51.802;5.710;2023-03-01T08:38:56;34.77;;;31.93;;
12660;SDS011;39039;51.802;5.710;2023-03-01T08:41:23;49.43;;;46.23;;
12660;SDS011;39039;51.802;5.710;2023-03-01T08:44:06;60.21;;;55.86;;
12660;SDS011;39039;51.802;5.710;2023-03-01T08:46:34;41.17;;;38.43;;
12660;SDS011;39039;51.802;5.710;2023-03-01T08:49:03;37.97;;;35.33;;
12660;SDS011;39039;51.802;5.710;2023-03-01T08:51:31;29.73;;;27.40;;
12660;SDS011;39039;51.802;5.710;2023-03-01T08:54:01;23.60;;;21.77;;
12660;SDS011;39039;51.802;5.710;2023-03-01T08:56:28;23.40;;;21.57;;
12660;SDS011;39039;51.802;5.710;2023-03-01T08:58:55;22.57;;;20.67;;
12660;SDS011;39039;51.802;5.710;2023-03-01T09:01:24;20.73;;;19.03;;
12660;SDS011;39039;51.802;5.710;2023-03-01T09:03:51;18.50;;;16.80;;
12660;SDS011;39039;51.802;5.710;2023-03-01T09:06:18;21.47;;;19.57;;
12660;SDS011;39039;51.802;5.710;2023-03-01T09:08:46;20.60;;;18.80;;
12660;SDS011;39039;51.802;5.710;2023-03-01T09:11:14;17.77;;;16.17;;
12660;SDS011;39039;51.802;5.710;2023-03-01T09:13:42;17.37;;;16.00;;
12660;SDS011;39039;51.802;5.710;2023-03-01T09:16:10;18.90;;;17.33;;
12660;SDS011;39039;51.802;5.710;2023-03-01T09:18:39;18.33;;;16.83;;
12660;SDS011;39039;51.802;5.710;2023-03-01T09:21:06;20.73;;;18.93;;
12660;SDS011;39039;51.802;5.710;2023-03-01T09:23:34;20.60;;;18.87;;
12660;SDS011;39039;51.802;5.710;2023-03-01T09:26:03;20.97;;;18.97;;
12660;SDS011;39039;51.802;5.710;2023-03-01T09:28:31;19.13;;;17.43;;
12660;SDS011;39039;51.802;5.710;2023-03-01T09:30:58;20.50;;;18.70;;
12660;SDS011;39039;51.802;5.710;2023-03-01T09:33:25;22.10;;;20.20;;
12660;SDS011;39039;51.802;5.710;2023-03-01T09:35:57;20.40;;;18.73;;
12660;SDS011;39039;51.802;5.710;2023-03-01T09:38:24;24.67;;;22.53;;
12660;SDS011;39039;51.802;5.710;2023-03-01T09:40:51;27.67;;;25.47;;
12660;SDS011;39039;51.802;5.710;2023-03-01T09:43:20;20.50;;;18.90;;
12660;SDS011;39039;51.802;5.710;2023-03-01T09:45:49;36.40;;;34.13;;
12660;SDS011;39039;51.802;5.710;2023-03-01T09:48:18;52.07;;;48.90;;
12660;SDS011;39039;51.802;5.710;2023-03-01T09:50:47;41.70;;;39.27;;
12660;SDS011;39039;51.802;5.710;2023-03-01T09:53:16;28.57;;;26.53;;
12660;SDS011;39039;51.802;5.710;2023-03-01T09:55:45;19.43;;;17.57;;
12660;SDS011;39039;51.802;5.710;2023-03-01T09:58:32;19.00;;;17.40;;
12660;SDS011;39039;51.802;5.710;2023-03-01T10:01:02;21.70;;;20.07;;
12660;SDS011;39039;51.802;5.710;2023-03-01T10:03:32;26.37;;;24.60;;
12660;SDS011;39039;51.802;5.710;2023-03-01T10:06:01;22.37;;;20.87;;
12660;SDS011;39039;51.802;5.710;2023-03-01T10:08:36;20.03;;;18.53;;
12660;SDS011;39039;51.802;5.710;2023-03-01T10:11:12;18.77;;;17.40;;
12660;SDS011;39039;51.802;5.710;2023-03-01T10:13:45;18.33;;;17.03;;
12660;SDS011;39039;51.802;5.710;2023-03-01T10:16:14;17.73;;;16.33;;
12660;SDS011;39039;51.802;5.710;2023-03-01T10:18:43;17.57;;;16.13;;
12660;SDS011;39039;51.802;5.710;2023-03-01T10:21:15;17.23;;;16.03;;
12660;SDS011;39039;51.802;5.710;2023-03-01T10:23:43;17.50;;;16.17;;
12660;SDS011;39039;51.802;5.710;2023-03-01T10:26:23;19.13;;;17.63;;
12660;SDS011;39039;51.802;5.710;2023-03-01T10:28:55;20.00;;;18.40;;
12660;SDS011;39039;51.802;5.710;2023-03-01T10:31:25;19.43;;;17.77;;
12660;SDS011;39039;51.802;5.710;2023-03-01T10:33:54;22.20;;;20.50;;
12660;SDS011;39039;51.802;5.710;2023-03-01T10:36:22;21.67;;;20.13;;
12660;SDS011;39039;51.802;5.710;2023-03-01T10:38:52;21.37;;;19.80;;
12660;SDS011;39039;51.802;5.710;2023-03-01T10:41:19;23.23;;;21.43;;
12660;SDS011;39039;51.802;5.710;2023-03-01T10:43:49;21.27;;;19.37;;
12660;SDS011;39039;51.802;5.710;2023-03-01T10:46:23;20.20;;;18.50;;
12660;SDS011;39039;51.802;5.710;2023-03-01T10:49:04;16.60;;;15.27;;
12660;SDS011;39039;51.802;5.710;2023-03-01T10:51:32;18.40;;;16.93;;
12660;SDS011;39039;51.802;5.710;2023-03-01T10:54:00;18.87;;;17.37;;
12660;SDS011;39039;51.802;5.710;2023-03-01T10:56:28;20.57;;;19.07;;
12660;SDS011;39039;51.802;5.710;2023-03-01T10:59:19;21.37;;;19.80;;
12660;SDS011;39039;51.802;5.710;2023-03-01T11:01:46;18.57;;;17.07;;
12660;SDS011;39039;51.802;5.710;2023-03-01T11:04:27;25.60;;;23.90;;
12660;SDS011;39039;51.802;5.710;2023-03-01T11:06:57;29.13;;;27.10;;
12660;SDS011;39039;51.802;5.710;2023-03-01T11:09:29;25.77;;;23.77;;
12660;SDS011;39039;51.802;5.710;2023-03-01T11:12:02;27.57;;;25.73;;
12660;SDS011;39039;51.802;5.710;2023-03-01T11:14:31;28.73;;;26.77;;
12660;SDS011;39039;51.802;5.710;2023-03-01T11:17:00;22.03;;;20.20;;
12660;SDS011;39039;51.802;5.710;2023-03-01T11:19:28;20.03;;;18.73;;
12660;SDS011;39039;51.802;5.710;2023-03-01T11:21:58;19.97;;;18.43;;
12660;SDS011;39039;51.802;5.710;2023-03-01T11:24:29;17.80;;;16.40;;
12660;SDS011;39039;51.802;5.710;2023-03-01T11:26:57;17.10;;;15.90;;
12660;SDS011;39039;51.802;5.710;2023-03-01T11:29:27;21.87;;;20.07;;
12660;SDS011;39039;51.802;5.710;2023-03-01T11:31:56;17.17;;;15.73;;
12660;SDS011;39039;51.802;5.710;2023-03-01T11:34:28;18.50;;;16.87;;
12660;SDS011;39039;51.802;5.710;2023-03-01T11:36:59;19.07;;;17.57;;
12660;SDS011;39039;51.802;5.710;2023-03-01T11:39:31;18.77;;;17.37;;
12660;SDS011;39039;51.802;5.710;2023-03-01T11:42:02;18.90;;;17.33;;
12660;SDS011;39039;51.802;5.710;2023-03-01T11:44:33;18.67;;;17.27;;
12660;SDS011;39039;51.802;5.710;2023-03-01T11:49:50;17.20;;;16.00;;
12660;SDS011;39039;51.802;5.710;2023-03-01T11:52:21;17.30;;;16.07;;
12660;SDS011;39039;51.802;5.710;2023-03-01T11:54:55;20.37;;;18.97;;
12660;SDS011;39039;51.802;5.710;2023-03-01T11:57:30;19.40;;;17.90;;
12660;SDS011;39039;51.802;5.710;2023-03-01T12:00:02;18.70;;;17.30;;
12660;SDS011;39039;51.802;5.710;2023-03-01T12:02:52;18.33;;;17.03;;
12660;SDS011;39039;51.802;5.710;2023-03-01T12:05:46;21.07;;;19.30;;
12660;SDS011;39039;51.802;5.710;2023-03-01T12:08:19;20.70;;;19.17;;
12660;SDS011;39039;51.802;5.710;2023-03-01T12:10:56;18.93;;;17.43;;
12660;SDS011;39039;51.802;5.710;2023-03-01T12:13:27;17.80;;;16.47;;
12660;SDS011;39039;51.802;5.710;2023-03-01T12:16:07;16.93;;;15.70;;
12660;SDS011;39039;51.802;5.710;2023-03-01T12:18:39;17.17;;;15.93;;
12660;SDS011;39039;51.802;5.710;2023-03-01T12:21:12;18.37;;;16.67;;
12660;SDS011;39039;51.802;5.710;2023-03-01T12:23:49;16.80;;;15.27;;
12660;SDS011;39039;51.802;5.710;2023-03-01T12:26:30;16.93;;;15.53;;
12660;SDS011;39039;51.802;5.710;2023-03-01T12:31:49;19.63;;;18.23;;
12660;SDS011;39039;51.802;5.710;2023-03-01T12:34:25;18.87;;;17.30;;
12660;SDS011;39039;51.802;5.710;2023-03-01T12:37:02;20.63;;;18.97;;
12660;SDS011;39039;51.802;5.710;2023-03-01T12:39:38;23.73;;;22.03;;
12660;SDS011;39039;51.802;5.710;2023-03-01T12:42:11;20.97;;;19.47;;
12660;SDS011;39039;51.802;5.710;2023-03-01T12:44:44;18.70;;;17.30;;
12660;SDS011;39039;51.802;5.710;2023-03-01T12:47:29;18.50;;;17.10;;
12660;SDS011;39039;51.802;5.710;2023-03-01T12:49:57;18.57;;;17.10;;
12660;SDS011;39039;51.802;5.710;2023-03-01T12:52:28;18.50;;;17.10;;
12660;SDS011;39039;51.802;5.710;2023-03-01T12:55:00;18.40;;;16.90;;
12660;SDS011;39039;51.802;5.710;2023-03-01T12:57:29;17.97;;;16.67;;
12660;SDS011;39039;51.802;5.710;2023-03-01T13:00:08;19.10;;;17.63;;
12660;SDS011;39039;51.802;5.710;2023-03-01T13:02:38;18.77;;;17.37;;
12660;SDS011;39039;51.802;5.710;2023-03-01T13:05:19;22.33;;;20.63;;
12660;SDS011;39039;51.802;5.710;2023-03-01T13:07:49;19.43;;;17.90;;
12660;SDS011;39039;51.802;5.710;2023-03-01T13:10:21;36.33;;;34.07;;
12660;SDS011;39039;51.802;5.710;2023-03-01T13:12:52;44.67;;;41.53;;
12660;SDS011;39039;51.802;5.710;2023-03-01T13:15:26;28.17;;;26.27;;
12660;SDS011;39039;51.802;5.710;2023-03-01T13:17:55;24.77;;;22.77;;
12660;SDS011;39039;51.802;5.710;2023-03-01T13:20:23;17.07;;;15.60;;
12660;SDS011;39039;51.802;5.710;2023-03-01T13:23:00;24.07;;;21.77;;
12660;SDS011;39039;51.802;5.710;2023-03-01T13:25:27;17.50;;;16.00;;
12660;SDS011;39039;51.802;5.710;2023-03-01T13:28:27;22.03;;;20.33;;
12660;SDS011;39039;51.802;5.710;2023-03-01T13:30:45;23.30;;;21.40;;
12660;SDS011;39039;51.802;5.710;2023-03-01T13:35:58;24.77;;;22.77;;
12660;SDS011;39039;51.802;5.710;2023-03-01T13:38:38;18.43;;;17.03;;
12660;SDS011;39039;51.802;5.710;2023-03-01T13:41:11;16.97;;;15.57;;
12660;SDS011;39039;51.802;5.710;2023-03-01T13:43:40;17.07;;;15.83;;
12660;SDS011;39039;51.802;5.710;2023-03-01T13:46:09;18.07;;;16.60;;
12660;SDS011;39039;51.802;5.710;2023-03-01T13:48:37;16.93;;;15.63;;
12660;SDS011;39039;51.802;5.710;2023-03-01T13:51:05;18.10;;;16.37;;
12660;SDS011;39039;51.802;5.710;2023-03-01T13:53:33;17.67;;;16.10;;
12660;SDS011;39039;51.802;5.710;2023-03-01T13:56:02;18.93;;;17.43;;
12660;SDS011;39039;51.802;5.710;2023-03-01T13:58:31;18.27;;;16.90;;
12660;SDS011;39039;51.802;5.710;2023-03-01T14:01:01;18.73;;;17.17;;
12660;SDS011;39039;51.802;5.710;2023-03-01T14:03:29;16.70;;;15.30;;
12660;SDS011;39039;51.802;5.710;2023-03-01T14:05:58;17.43;;;16.03;;
12660;SDS011;39039;51.802;5.710;2023-03-01T14:08:26;15.10;;;13.90;;
12660;SDS011;39039;51.802;5.710;2023-03-01T14:10:54;19.17;;;17.53;;
12660;SDS011;39039;51.802;5.710;2023-03-01T14:13:28;17.33;;;16.07;;
12660;SDS011;39039;51.802;5.710;2023-03-01T14:16:07;17.50;;;16.10;;
12660;SDS011;39039;51.802;5.710;2023-03-01T14:18:39;18.03;;;16.63;;
12660;SDS011;39039;51.802;5.710;2023-03-01T14:21:08;17.90;;;16.60;;
12660;SDS011;39039;51.802;5.710;2023-03-01T14:23:37;17.10;;;15.80;;
12660;SDS011;39039;51.802;5.710;2023-03-01T14:26:07;17.90;;;16.60;;
12660;SDS011;39039;51.802;5.710;2023-03-01T14:28:37;18.73;;;17.10;;
12660;SDS011;39039;51.802;5.710;2023-03-01T14:33:48;15.23;;;14.13;;
12660;SDS011;39039;51.802;5.710;2023-03-01T14:36:25;15.90;;;14.60;;
12660;SDS011;39039;51.802;5.710;2023-03-01T14:38:52;20.43;;;17.67;;
12660;SDS011;39039;51.802;5.710;2023-03-01T14:41:20;15.83;;;14.67;;
12660;SDS011;39039;51.802;5.710;2023-03-01T14:43:49;16.10;;;14.73;;